Bloomville, Wisconsin
Current Conditions -  °F | °C
As of 3:35 PM on Friday 19 Dec 2014 (Local Time) from KRRL Reporting Station
Scattered Clouds Scattered Clouds  
Wind Chill: 24°   Ceiling: Unl
Heat Index: 24°   Visibility: 10mi
Dew Point: 18°   Wind: 3mph
Humidity: 76%   Direction: 240°WSW
Pressure: 30.22"   Gusts: NA
Location:  45.3595°N, 89.45°W
Report Text: KRRL 192135Z AUTO 24003KT 10SM SCT023 M04/M08 A3022 RMK AO2 T10421078
Loading
Personal Weather Stations






























Interactive Weather Map New forecast layout! Learn more

10-Day Weather Forecast

Advertisements
Track Severe Weather on mobile